Time;durP1;ratioP1;P1;durP2;ratioP2;P2;SDS_P1;SDS_P2;PMS_P1;PMS_P2;Temp;Humidity;BMP_temperature;BMP_pressure;BME280_temperature;BME280_humidity;BME280_pressure;Samples;Min_cycle;Max_cycle;Signal;HPM_P1;HPM_P2
2021/07/31 00:01:10;;;;;;;5.45;2.10;;;17.60;27.70;;;;;;4977694;28;20396;-75
2021/07/31 00:03:36;;;;;;;6.47;2.45;;;17.60;27.60;;;;;;4973772;28;20408;-75
2021/07/31 00:06:02;;;;;;;3.35;1.65;;;17.60;27.70;;;;;;4976220;28;20398;-76
2021/07/31 00:08:31;;;;;;;6.35;2.22;;;17.60;28.00;;;;;;4977264;28;20400;-75
2021/07/31 00:10:57;;;;;;;6.30;2.20;;;17.60;27.80;;;;;;4993331;28;20421;-76
2021/07/31 00:13:23;;;;;;;3.70;1.80;;;17.60;28.20;;;;;;4997827;28;20477;-76
2021/07/31 00:15:49;;;;;;;5.38;2.10;;;17.70;27.70;;;;;;4996633;28;20470;-76
2021/07/31 00:18:15;;;;;;;8.25;2.60;;;17.70;27.70;;;;;;4993122;28;20474;-75
2021/07/31 00:20:41;;;;;;;5.22;2.60;;;17.70;27.90;;;;;;4992981;28;20775;-76
2021/07/31 00:23:06;;;;;;;3.63;1.90;;;17.80;27.70;;;;;;4993618;28;20410;-74
2021/07/31 00:25:32;;;;;;;8.88;1.83;;;17.90;27.60;;;;;;4994185;28;20393;-76
2021/07/31 00:27:58;;;;;;;10.50;2.47;;;18.00;27.30;;;;;;4983364;28;20459;-76
2021/07/31 00:30:25;;;;;;;6.05;1.88;;;18.00;27.20;;;;;;4971495;28;20392;-76
2021/07/31 00:32:51;;;;;;;5.60;2.30;;;18.00;27.20;;;;;;4975967;28;20402;-74
2021/07/31 00:35:17;;;;;;;6.55;1.88;;;18.00;27.50;;;;;;4992141;28;20402;-75
2021/07/31 00:37:42;;;;;;;5.50;2.10;;;18.00;27.40;;;;;;4991680;28;20481;-76
2021/07/31 00:40:08;;;;;;;6.70;2.28;;;18.00;28.10;;;;;;4992344;28;20390;-76
2021/07/31 00:42:37;;;;;;;6.70;2.22;;;18.00;27.50;;;;;;4991657;28;20486;-76
2021/07/31 00:45:03;;;;;;;9.68;2.30;;;17.90;27.60;;;;;;4987141;28;20800;-76
2021/07/31 00:47:29;;;;;;;6.78;2.17;;;17.90;27.80;;;;;;4972135;28;20384;-76
2021/07/31 00:49:55;;;;;;;4.63;2.00;;;17.90;27.80;;;;;;4972496;28;20403;-77
2021/07/31 00:52:20;;;;;;;7.97;2.47;;;18.00;27.60;;;;;;4972517;28;20446;-76
2021/07/31 00:54:46;;;;;;;9.98;2.20;;;18.10;27.60;;;;;;4987062;28;20403;-75
2021/07/31 00:57:15;;;;;;;6.00;2.30;;;18.10;27.70;;;;;;4974016;28;20951;-75
2021/07/31 00:59:41;;;;;;;5.03;2.40;;;18.10;28.00;;;;;;4974355;28;20403;-77
2021/07/31 01:02:06;;;;;;;10.13;2.00;;;18.10;27.90;;;;;;4972825;28;20927;-77
2021/07/31 01:04:32;;;;;;;9.97;2.70;;;18.10;28.10;;;;;;4972331;28;20893;-75
2021/07/31 01:06:58;;;;;;;6.38;2.30;;;18.00;28.30;;;;;;4989850;28;20390;-75
2021/07/31 01:09:23;;;;;;;4.30;2.40;;;18.10;28.10;;;;;;4972590;28;20396;-74
2021/07/31 01:11:49;;;;;;;8.97;2.70;;;18.10;28.20;;;;;;4991391;28;20957;-76
2021/07/31 01:14:14;;;;;;;5.87;2.40;;;18.00;28.30;;;;;;4991542;28;20414;-74
2021/07/31 01:16:40;;;;;;;5.70;2.50;;;18.00;28.80;;;;;;4991842;28;20469;-76
2021/07/31 01:19:06;;;;;;;8.20;2.30;;;17.90;28.80;;;;;;4975754;28;20400;-77
2021/07/31 01:21:45;;;;;;;4.03;2.20;;;17.90;29.00;;;;;;4972116;28;20392;-74
2021/07/31 01:24:12;;;;;;;6.63;2.60;;;17.90;29.10;;;;;;4972251;28;20412;-75
2021/07/31 01:26:46;;;;;;;5.57;2.13;;;17.90;29.10;;;;;;4981554;28;20447;-74
2021/07/31 01:29:14;;;;;;;8.67;2.47;;;17.80;29.50;;;;;;4991163;28;20743;-74
2021/07/31 01:31:41;;;;;;;7.88;2.67;;;17.70;29.80;;;;;;4991342;28;20378;-75
2021/07/31 01:34:07;;;;;;;9.07;2.67;;;17.70;29.90;;;;;;4991306;28;20505;-75
2021/07/31 01:36:33;;;;;;;5.47;2.30;;;17.60;30.20;;;;;;4981087;28;20438;-74
2021/07/31 01:38:59;;;;;;;5.25;2.15;;;17.70;30.30;;;;;;4971350;28;20384;-74
2021/07/31 01:41:25;;;;;;;6.55;2.70;;;17.60;30.30;;;;;;4971665;28;20813;-75
2021/07/31 01:43:52;;;;;;;6.38;2.17;;;17.60;30.50;;;;;;4971821;28;20901;-76
2021/07/31 01:46:19;;;;;;;8.30;2.90;;;17.70;30.30;;;;;;4972885;28;20830;-75
2021/07/31 01:48:44;;;;;;;11.65;2.90;;;17.70;30.50;;;;;;4972084;28;20423;-76
2021/07/31 01:51:19;;;;;;;8.73;2.67;;;17.80;30.20;;;;;;4986409;28;20388;-75
2021/07/31 01:53:44;;;;;;;4.28;2.10;;;17.80;30.10;;;;;;4971716;28;20449;-74
2021/07/31 01:56:10;;;;;;;7.93;2.40;;;17.80;30.20;;;;;;4981345;28;20418;-76
2021/07/31 01:58:36;;;;;;;6.50;2.60;;;17.80;30.30;;;;;;4985379;28;20418;-74
2021/07/31 02:01:01;;;;;;;7.30;2.80;;;17.80;30.10;;;;;;4976315;28;20810;-75
2021/07/31 02:03:27;;;;;;;7.40;2.72;;;17.90;30.00;;;;;;4975637;28;20412;-75
2021/07/31 02:05:53;;;;;;;7.00;2.30;;;17.90;30.10;;;;;;4980162;28;20396;-74
2021/07/31 02:08:19;;;;;;;5.70;2.70;;;17.90;30.30;;;;;;4975254;28;20416;-74
2021/07/31 02:10:45;;;;;;;6.90;2.25;;;17.90;30.30;;;;;;4985621;28;20402;-75
2021/07/31 02:13:11;;;;;;;8.75;2.90;;;17.90;30.20;;;;;;4994684;28;20394;-75
2021/07/31 02:15:41;;;;;;;8.10;2.40;;;17.90;30.30;;;;;;4992895;28;20833;-76
2021/07/31 02:18:07;;;;;;;7.22;2.58;;;17.90;30.00;;;;;;4974735;28;20403;-75
2021/07/31 02:20:32;;;;;;;7.73;3.10;;;17.90;30.10;;;;;;4974918;28;20396;-76
2021/07/31 02:22:58;;;;;;;8.87;2.87;;;17.80;30.50;;;;;;4974696;28;20434;-77
2021/07/31 02:25:24;;;;;;;10.55;2.80;;;17.70;30.60;;;;;;4973586;28;20538;-73
2021/07/31 02:27:50;;;;;;;8.25;2.80;;;17.70;30.70;;;;;;4992785;28;20406;-75
2021/07/31 02:30:16;;;;;;;11.77;2.50;;;17.70;30.80;;;;;;4993658;28;20402;-75
2021/07/31 02:32:41;;;;;;;10.33;3.10;;;17.70;30.70;;;;;;4974824;28;20466;-76
2021/07/31 02:35:09;;;;;;;11.83;3.10;;;17.70;30.60;;;;;;4974723;28;20482;-76
2021/07/31 02:37:35;;;;;;;4.75;2.55;;;17.70;30.60;;;;;;4975273;28;20451;-76
2021/07/31 02:40:00;;;;;;;10.82;2.75;;;17.70;30.50;;;;;;4975086;28;20388;-75
2021/07/31 02:42:26;;;;;;;5.60;2.72;;;17.60;30.60;;;;;;4991803;28;20775;-76
2021/07/31 02:44:52;;;;;;;9.90;2.80;;;17.60;30.60;;;;;;4993052;28;20415;-75
2021/07/31 02:47:17;;;;;;;5.40;2.57;;;17.60;30.70;;;;;;4994272;28;20422;-74
2021/07/31 02:49:43;;;;;;;5.80;2.40;;;17.60;30.20;;;;;;4994307;28;20386;-74
2021/07/31 02:52:08;;;;;;;5.82;2.22;;;17.80;30.10;;;;;;4979077;28;20439;-74
2021/07/31 02:54:34;;;;;;;4.97;2.10;;;17.70;30.00;;;;;;4974963;28;20454;-74
2021/07/31 02:56:59;;;;;;;5.10;2.20;;;17.80;29.70;;;;;;4978842;28;20411;-74
2021/07/31 02:59:25;;;;;;;6.57;2.60;;;17.80;29.60;;;;;;4977887;28;20418;-73
2021/07/31 03:01:50;;;;;;;4.60;2.50;;;17.80;29.80;;;;;;4975824;28;20424;-76
2021/07/31 03:04:16;;;;;;;6.70;2.57;;;17.80;29.80;;;;;;4992247;28;20430;-76
2021/07/31 03:06:42;;;;;;;8.13;2.90;;;17.80;29.60;;;;;;4976387;28;20396;-75
2021/07/31 03:09:07;;;;;;;6.07;2.50;;;17.80;29.70;;;;;;4993054;28;20391;-74
2021/07/31 03:11:33;;;;;;;7.18;2.60;;;17.90;29.50;;;;;;4977022;28;20403;-74
2021/07/31 03:13:58;;;;;;;4.03;2.50;;;17.80;29.90;;;;;;4983803;28;20434;-75
2021/07/31 03:16:24;;;;;;;12.07;2.80;;;17.80;29.50;;;;;;4993584;28;20402;-76
2021/07/31 03:18:50;;;;;;;6.20;2.50;;;17.80;29.50;;;;;;4974894;28;20408;-76
2021/07/31 03:21:15;;;;;;;8.47;2.60;;;17.80;29.50;;;;;;4984542;28;20473;-75
2021/07/31 03:23:41;;;;;;;6.10;2.90;;;17.80;29.70;;;;;;4993543;28;20437;-74
2021/07/31 03:26:06;;;;;;;5.97;2.57;;;17.80;30.00;;;;;;4993053;28;20383;-75
2021/07/31 03:28:32;;;;;;;9.70;2.87;;;17.70;30.10;;;;;;4993169;28;20387;-75
2021/07/31 03:30:58;;;;;;;5.30;2.42;;;17.60;30.20;;;;;;4985525;28;20400;-75
2021/07/31 03:33:24;;;;;;;8.50;2.67;;;17.60;30.10;;;;;;4988972;28;20908;-74
2021/07/31 03:35:52;;;;;;;6.75;2.90;;;17.60;30.40;;;;;;4973818;28;20404;-74
2021/07/31 03:38:18;;;;;;;4.50;2.50;;;17.60;30.40;;;;;;4973740;28;20797;-74
2021/07/31 03:40:44;;;;;;;11.20;2.65;;;17.70;30.30;;;;;;4978150;28;20433;-74
2021/07/31 03:43:12;;;;;;;7.40;2.60;;;17.80;29.90;;;;;;4994736;28;20489;-74
2021/07/31 03:45:37;;;;;;;4.55;2.80;;;17.80;29.90;;;;;;4993007;28;20390;-73
2021/07/31 03:48:03;;;;;;;10.30;3.20;;;17.80;30.00;;;;;;4992468;28;20401;-76
2021/07/31 03:50:29;;;;;;;7.05;3.00;;;17.70;30.00;;;;;;4991946;28;20891;-75
2021/07/31 03:52:54;;;;;;;8.18;2.70;;;17.70;30.50;;;;;;4992564;28;20390;-75
2021/07/31 03:55:20;;;;;;;6.07;2.70;;;17.70;30.40;;;;;;4994271;28;20386;-74
2021/07/31 03:57:46;;;;;;;8.93;2.80;;;17.70;30.70;;;;;;4992270;28;20386;-75
2021/07/31 04:00:12;;;;;;;10.60;3.10;;;17.50;31.00;;;;;;4977250;28;20447;-76
2021/07/31 04:02:37;;;;;;;10.30;3.50;;;17.50;31.20;;;;;;4995615;28;20421;-76
2021/07/31 04:05:03;;;;;;;12.67;3.00;;;17.50;31.40;;;;;;4994145;28;20397;-76
2021/07/31 04:07:28;;;;;;;10.82;3.40;;;17.50;31.30;;;;;;4974454;28;20388;-76
2021/07/31 04:09:54;;;;;;;5.65;3.00;;;17.30;31.90;;;;;;4974943;28;20423;-76
2021/07/31 04:12:20;;;;;;;8.10;3.50;;;17.30;32.30;;;;;;4993437;28;20406;-76
2021/07/31 04:14:45;;;;;;;11.10;3.50;;;17.20;32.50;;;;;;4996073;28;20390;-75
2021/07/31 04:17:13;;;;;;;6.87;3.10;;;17.20;33.30;;;;;;5010678;28;20394;-74
2021/07/31 04:19:39;;;;;;;6.03;2.78;;;17.20;33.00;;;;;;4996021;28;20402;-75
2021/07/31 04:22:05;;;;;;;6.00;3.17;;;17.10;33.50;;;;;;4979765;28;20411;-75
2021/07/31 04:24:30;;;;;;;9.53;3.10;;;17.00;33.60;;;;;;4979100;28;20440;-75
2021/07/31 04:26:56;;;;;;;6.83;3.20;;;16.90;33.90;;;;;;4997587;28;20404;-76
2021/07/31 04:29:22;;;;;;;6.80;2.80;;;17.00;33.90;;;;;;4982748;28;20400;-75
2021/07/31 04:31:48;;;;;;;10.10;3.88;;;17.10;33.90;;;;;;4995260;28;20399;-75
2021/07/31 04:34:13;;;;;;;8.02;3.15;;;17.10;33.70;;;;;;5001673;28;20395;-76
2021/07/31 04:36:39;;;;;;;6.55;3.00;;;17.20;33.70;;;;;;5001799;28;20398;-76
2021/07/31 04:39:06;;;;;;;7.30;3.50;;;17.30;33.30;;;;;;5003855;28;20894;-76
2021/07/31 04:41:32;;;;;;;8.43;3.38;;;17.30;33.20;;;;;;4990985;28;20476;-76
2021/07/31 04:43:57;;;;;;;6.60;3.80;;;17.40;33.10;;;;;;4980011;28;20451;-76
2021/07/31 04:46:23;;;;;;;6.32;3.22;;;17.50;32.70;;;;;;4981126;28;20742;-76
2021/07/31 04:48:48;;;;;;;6.18;3.13;;;17.50;32.80;;;;;;4980496;28;20479;-75
2021/07/31 04:51:14;;;;;;;5.40;3.10;;;17.60;32.60;;;;;;4999446;28;20448;-75
2021/07/31 04:53:40;;;;;;;6.55;2.95;;;17.60;32.60;;;;;;4991777;28;20386;-74
2021/07/31 04:56:06;;;;;;;7.60;3.10;;;17.60;32.70;;;;;;4991480;28;20533;-74
2021/07/31 04:58:31;;;;;;;6.77;3.40;;;17.60;32.70;;;;;;4983005;28;20538;-75
2021/07/31 05:01:01;;;;;;;10.60;3.03;;;17.60;32.50;;;;;;4976744;28;20449;-75
2021/07/31 05:03:27;;;;;;;10.67;3.20;;;17.70;32.60;;;;;;4991599;28;20410;-74
2021/07/31 05:05:54;;;;;;;7.83;3.23;;;17.70;32.50;;;;;;4982491;28;20464;-74
2021/07/31 05:08:20;;;;;;;7.80;3.42;;;17.70;32.40;;;;;;4970428;28;20544;-74
2021/07/31 05:10:48;;;;;;;7.20;3.20;;;17.70;32.70;;;;;;4982523;28;20402;-74
2021/07/31 05:13:14;;;;;;;4.75;2.70;;;17.70;32.90;;;;;;4983241;28;20526;-75
2021/07/31 05:15:42;;;;;;;9.45;3.38;;;17.60;32.80;;;;;;4972181;28;20388;-75
2021/07/31 05:18:08;;;;;;;4.57;2.72;;;17.70;32.80;;;;;;4971450;28;20799;-74
2021/07/31 05:20:37;;;;;;;6.83;2.80;;;17.70;32.90;;;;;;4973165;28;20392;-75
2021/07/31 05:23:02;;;;;;;10.53;3.20;;;17.70;32.50;;;;;;4974220;28;20415;-76
2021/07/31 05:25:28;;;;;;;6.70;2.90;;;17.70;32.60;;;;;;4985431;28;20448;-75
2021/07/31 05:27:54;;;;;;;7.70;3.17;;;17.80;32.10;;;;;;4990924;28;20553;-76
2021/07/31 05:30:20;;;;;;;11.10;3.40;;;17.90;31.90;;;;;;4993509;28;20386;-76
2021/07/31 05:32:46;;;;;;;9.95;2.92;;;17.90;31.80;;;;;;4993939;28;20390;-76
2021/07/31 05:35:11;;;;;;;6.47;3.10;;;18.00;31.60;;;;;;4995141;28;20423;-76
2021/07/31 05:37:37;;;;;;;8.23;3.20;;;18.10;31.50;;;;;;4978562;28;20396;-76
2021/07/31 05:40:03;;;;;;;8.10;3.17;;;18.00;31.60;;;;;;4975667;28;20415;-76
2021/07/31 05:42:29;;;;;;;9.02;3.50;;;17.90;31.80;;;;;;4974518;28;20717;-75
2021/07/31 05:44:59;;;;;;;9.45;3.33;;;18.00;31.60;;;;;;4974147;28;20491;-75
2021/07/31 05:47:27;;;;;;;6.75;3.10;;;18.00;31.60;;;;;;4975233;28;20404;-76
2021/07/31 05:49:57;;;;;;;5.07;2.80;;;18.00;31.60;;;;;;4989687;28;20448;-76
2021/07/31 05:52:28;;;;;;;6.15;3.40;;;18.10;31.10;;;;;;4994833;28;20382;-76
2021/07/31 05:54:57;;;;;;;5.93;3.28;;;18.00;31.30;;;;;;4994637;28;20402;-76
2021/07/31 05:57:23;;;;;;;7.80;3.25;;;18.00;31.60;;;;;;4994994;28;20394;-77
2021/07/31 05:59:49;;;;;;;6.72;2.90;;;18.10;31.10;;;;;;4976106;28;20404;-76
2021/07/31 06:02:15;;;;;;;6.23;3.20;;;18.00;31.40;;;;;;4992908;28;20504;-76
2021/07/31 06:04:41;;;;;;;6.32;3.00;;;18.00;31.50;;;;;;4994365;28;20776;-75
2021/07/31 06:07:07;;;;;;;5.40;2.70;;;18.20;31.10;;;;;;4975614;28;20388;-74
2021/07/31 06:09:34;;;;;;;6.60;3.10;;;18.20;31.30;;;;;;4975773;28;20388;-75
2021/07/31 06:12:00;;;;;;;6.60;2.90;;;18.40;30.70;;;;;;4990586;28;20926;-75
2021/07/31 06:14:26;;;;;;;8.27;3.28;;;18.50;30.30;;;;;;4975228;28;20400;-76
2021/07/31 06:16:52;;;;;;;7.28;3.55;;;18.50;30.10;;;;;;4975150;28;20431;-76
2021/07/31 06:19:17;;;;;;;5.30;3.00;;;18.60;30.00;;;;;;4980733;28;20421;-75
2021/07/31 06:21:43;;;;;;;6.87;2.93;;;18.50;29.80;;;;;;4985741;28;20404;-75
2021/07/31 06:24:09;;;;;;;7.35;3.22;;;18.50;30.00;;;;;;4978377;28;20411;-76
2021/07/31 06:26:35;;;;;;;7.80;3.30;;;18.50;30.20;;;;;;4982242;28;20416;-75
2021/07/31 06:29:01;;;;;;;7.03;2.83;;;18.60;30.00;;;;;;4983684;28;20399;-75
2021/07/31 06:31:26;;;;;;;4.87;3.30;;;18.70;29.60;;;;;;4974298;28;20749;-74
2021/07/31 06:33:52;;;;;;;6.57;3.00;;;18.90;29.10;;;;;;4981046;28;20406;-74
2021/07/31 06:36:21;;;;;;;6.83;3.37;;;18.90;29.20;;;;;;4974727;28;20392;-74
2021/07/31 06:38:47;;;;;;;5.53;3.20;;;18.80;29.10;;;;;;4974450;28;20392;-73
2021/07/31 06:41:13;;;;;;;8.63;3.10;;;18.80;29.30;;;;;;4974330;28;20407;-74
2021/07/31 06:43:38;;;;;;;7.03;3.50;;;19.00;28.70;;;;;;4976925;28;20491;-74
2021/07/31 06:46:15;;;;;;;7.50;3.10;;;19.10;28.50;;;;;;4988500;28;20398;-74
2021/07/31 06:48:42;;;;;;;12.60;3.28;;;19.10;28.70;;;;;;4985449;28;20638;-74
2021/07/31 06:51:08;;;;;;;5.50;2.97;;;19.10;28.60;;;;;;4989995;28;20872;-75
2021/07/31 06:53:34;;;;;;;5.30;3.05;;;19.20;28.50;;;;;;4984092;28;20453;-76
2021/07/31 06:56:01;;;;;;;7.50;3.28;;;19.30;27.90;;;;;;4978491;28;20487;-75
2021/07/31 06:58:27;;;;;;;6.87;3.27;;;19.20;28.10;;;;;;4987048;28;20502;-74
2021/07/31 07:00:52;;;;;;;8.00;3.20;;;19.10;28.20;;;;;;4988807;28;20771;-75
2021/07/31 07:03:18;;;;;;;8.90;2.90;;;19.10;28.70;;;;;;4989632;28;20498;-75
2021/07/31 07:05:44;;;;;;;8.20;3.10;;;19.20;28.30;;;;;;4991115;28;20456;-77
2021/07/31 07:08:10;;;;;;;5.40;2.70;;;19.40;28.30;;;;;;4995579;28;20485;-76
2021/07/31 07:10:36;;;;;;;6.97;3.38;;;19.60;27.00;;;;;;5001290;28;20488;-77
2021/07/31 07:13:02;;;;;;;6.57;2.83;;;19.60;27.00;;;;;;5006207;28;20828;-76
2021/07/31 07:15:28;;;;;;;8.23;3.13;;;19.40;27.40;;;;;;4980452;28;20881;-76
2021/07/31 07:17:58;;;;;;;5.25;3.28;;;19.40;27.60;;;;;;4987130;28;20394;-75
2021/07/31 07:20:24;;;;;;;7.28;2.90;;;19.40;27.50;;;;;;4999094;28;20429;-77
2021/07/31 07:22:50;;;;;;;6.63;3.50;;;19.50;27.20;;;;;;4977963;28;20401;-77
2021/07/31 07:25:16;;;;;;;6.23;3.20;;;19.60;26.80;;;;;;5003141;28;20422;-76
2021/07/31 07:27:42;;;;;;;3.60;2.60;;;19.60;27.00;;;;;;4977418;28;20958;-76
2021/07/31 07:30:08;;;;;;;9.23;3.20;;;19.70;26.70;;;;;;4976588;28;20483;-76
2021/07/31 07:32:34;;;;;;;7.30;3.08;;;19.80;26.90;;;;;;4993961;28;20461;-79
2021/07/31 07:35:00;;;;;;;5.33;2.83;;;19.90;26.30;;;;;;4982022;28;20777;-77
2021/07/31 07:37:26;;;;;;;7.93;3.10;;;19.90;25.60;;;;;;4990197;28;20901;-78
2021/07/31 07:39:52;;;;;;;4.33;2.73;;;19.60;26.90;;;;;;4987759;28;20407;-78
2021/07/31 07:42:17;;;;;;;6.47;3.70;;;19.30;27.20;;;;;;4993591;28;20406;-77
2021/07/31 07:44:43;;;;;;;12.00;3.13;;;19.50;27.50;;;;;;4996001;28;20410;-78
2021/07/31 07:47:12;;;;;;;4.03;3.00;;;19.50;26.90;;;;;;5010647;28;20874;-76
2021/07/31 07:49:38;;;;;;;4.10;2.83;;;19.50;26.90;;;;;;4993878;28;20456;-75
2021/07/31 07:52:04;;;;;;;10.80;3.30;;;19.40;27.50;;;;;;4981428;28;20384;-77
2021/07/31 07:54:30;;;;;;;8.30;3.10;;;19.30;28.00;;;;;;4998517;28;20406;-74
2021/07/31 07:56:57;;;;;;;9.27;3.40;;;19.10;28.30;;;;;;4983205;28;20402;-76
2021/07/31 07:59:22;;;;;;;9.23;3.78;;;19.00;28.80;;;;;;4986281;28;20433;-75
2021/07/31 08:01:48;;;;;;;9.20;3.57;;;19.10;28.80;;;;;;4981932;28;20460;-75
2021/07/31 08:04:14;;;;;;;5.97;3.05;;;19.00;28.80;;;;;;4978546;28;20435;-76
2021/07/31 08:06:40;;;;;;;7.68;3.30;;;19.00;29.00;;;;;;4989602;28;20390;-77
2021/07/31 08:09:05;;;;;;;7.60;3.40;;;19.10;28.90;;;;;;4992611;28;20426;-77
2021/07/31 08:11:32;;;;;;;6.13;2.90;;;19.10;28.70;;;;;;4986730;28;20421;-78
2021/07/31 08:13:57;;;;;;;6.70;3.10;;;19.20;28.10;;;;;;5012590;28;20772;-77
2021/07/31 08:16:23;;;;;;;7.40;3.40;;;19.40;28.30;;;;;;4991104;28;20411;-77
2021/07/31 08:18:49;;;;;;;6.50;3.20;;;19.40;27.80;;;;;;4999202;28;20403;-77
2021/07/31 08:21:15;;;;;;;6.20;3.17;;;19.30;28.10;;;;;;5011396;28;20415;-76
2021/07/31 08:23:41;;;;;;;7.22;3.35;;;19.20;28.10;;;;;;4992972;28;20430;-76
2021/07/31 08:26:12;;;;;;;7.78;3.20;;;19.10;28.60;;;;;;4991787;28;20464;-78
2021/07/31 08:28:39;;;;;;;8.55;3.63;;;19.20;28.20;;;;;;4985868;28;20432;-76
2021/07/31 08:31:06;;;;;;;6.43;3.35;;;19.20;28.10;;;;;;4983411;28;20394;-79
2021/07/31 08:33:32;;;;;;;11.90;3.30;;;19.30;28.50;;;;;;4983444;28;20411;-76
2021/07/31 08:35:58;;;;;;;5.63;3.30;;;19.50;28.20;;;;;;4975721;28;20396;-76
2021/07/31 08:38:24;;;;;;;10.50;3.90;;;19.40;27.30;;;;;;4975824;28;20511;-76
2021/07/31 08:40:50;;;;;;;5.60;3.10;;;19.40;28.00;;;;;;4994194;28;20406;-77
2021/07/31 08:43:16;;;;;;;6.67;2.80;;;19.60;27.40;;;;;;4995116;28;20513;-77
2021/07/31 08:45:42;;;;;;;6.57;3.30;;;19.50;26.70;;;;;;4995051;28;20847;-76
2021/07/31 08:48:08;;;;;;;5.22;3.10;;;19.50;27.70;;;;;;4995723;28;20401;-75
2021/07/31 08:50:35;;;;;;;6.57;2.75;;;19.50;27.60;;;;;;5012619;28;20398;-77
2021/07/31 08:53:01;;;;;;;6.47;3.55;;;19.50;27.10;;;;;;4998060;28;20386;-77
2021/07/31 08:55:27;;;;;;;5.70;2.88;;;19.60;27.30;;;;;;4996558;28;20406;-75
2021/07/31 08:57:53;;;;;;;7.37;3.20;;;19.70;26.70;;;;;;4997993;28;20390;-77
2021/07/31 09:00:18;;;;;;;4.70;3.50;;;19.90;26.50;;;;;;4996213;28;20402;-77
2021/07/31 09:02:46;;;;;;;7.68;3.00;;;20.30;25.10;;;;;;4996349;28;20492;-75
2021/07/31 09:05:27;;;;;;;6.57;2.80;;;20.60;23.50;;;;;;4988331;28;20415;-76
2021/07/31 09:08:01;;;;;;;5.38;3.17;;;21.00;23.10;;;;;;4996154;28;20430;-76
2021/07/31 09:10:28;;;;;;;10.13;3.45;;;21.30;22.00;;;;;;5016528;23;20427;-77
2021/07/31 09:13:00;;;;;;;4.60;2.60;;;21.30;21.40;;;;;;5006493;28;20410;-77
2021/07/31 09:15:36;;;;;;;4.97;2.70;;;21.30;21.90;;;;;;4998672;28;20431;-77
2021/07/31 09:18:31;;;;;;;5.80;2.50;;;21.10;22.30;;;;;;4990902;28;20380;-77
2021/07/31 09:21:07;;;;;;;8.32;3.70;;;21.00;22.00;;;;;;5008195;28;20906;-77
2021/07/31 09:23:49;;;;;;;6.72;3.10;;;20.90;23.30;;;;;;5023415;28;20437;-80
2021/07/31 09:26:23;;;;;;;5.57;3.00;;;20.90;23.30;;;;;;5002729;28;20400;-77
2021/07/31 09:29:11;;;;;;;7.30;2.63;;;20.80;23.10;;;;;;4998002;28;20475;-79
2021/07/31 09:31:39;;;;;;;4.43;2.70;;;20.60;22.80;;;;;;5000357;28;20397;-79
2021/07/31 09:34:06;;;;;;;4.15;3.10;;;20.60;23.60;;;;;;4999085;28;20517;-78
2021/07/31 09:36:44;;;;;;;8.13;3.03;;;20.60;23.70;;;;;;4999173;28;20452;-80
2021/07/31 09:39:11;;;;;;;3.58;2.95;;;20.70;23.80;;;;;;4997937;28;20403;-80
2021/07/31 09:41:39;;;;;;;3.47;2.70;;;20.90;23.30;;;;;;4996532;28;20460;-77
2021/07/31 09:44:04;;;;;;;4.47;2.80;;;21.40;21.90;;;;;;5001203;28;20429;-73
2021/07/31 09:46:51;;;;;;;4.80;2.60;;;21.70;21.90;;;;;;4990039;28;20425;-76
2021/07/31 09:49:18;;;;;;;7.18;2.90;;;21.90;20.60;;;;;;4973298;28;20415;-75
2021/07/31 09:51:48;;;;;;;5.87;2.47;;;22.20;20.00;;;;;;4976267;28;20381;-79
2021/07/31 09:54:16;;;;;;;4.10;2.40;;;22.60;19.60;;;;;;4987539;28;20482;-77
2021/07/31 09:56:44;;;;;;;4.65;2.70;;;22.70;18.00;;;;;;4981672;28;20949;-77
2021/07/31 09:59:11;;;;;;;7.32;2.95;;;22.80;18.20;;;;;;5003105;28;20410;-79
2021/07/31 10:01:41;;;;;;;7.95;2.75;;;22.80;18.50;;;;;;4998485;28;20501;-78
2021/07/31 10:04:07;;;;;;;4.68;2.40;;;22.90;18.50;;;;;;4996756;28;20418;-78
2021/07/31 10:06:33;;;;;;;5.75;2.90;;;22.70;18.20;;;;;;4995590;28;20898;-78
2021/07/31 10:09:05;;;;;;;5.00;2.90;;;22.60;18.80;;;;;;4996138;28;20394;-78
2021/07/31 10:11:35;;;;;;;6.65;2.90;;;22.60;18.40;;;;;;4980386;28;20396;-77
2021/07/31 10:14:02;;;;;;;3.67;2.70;;;22.60;18.50;;;;;;5005394;28;20894;-79
2021/07/31 10:16:29;;;;;;;2.97;2.40;;;22.50;18.30;;;;;;5014783;28;20535;-79
2021/07/31 10:18:59;;;;;;;3.45;2.50;;;22.50;18.40;;;;;;4999792;28;20404;-77
2021/07/31 10:21:26;;;;;;;5.55;2.33;;;22.50;18.10;;;;;;5015938;28;20406;-78
2021/07/31 10:24:04;;;;;;;4.10;2.20;;;22.30;17.90;;;;;;5002488;28;20418;-77
2021/07/31 10:26:30;;;;;;;3.63;2.30;;;21.70;18.80;;;;;;4999881;28;20394;-76
2021/07/31 10:29:33;;;;;;;4.40;2.60;;;21.20;20.20;;;;;;4995393;28;20400;-76
2021/07/31 10:32:20;;;;;;;5.22;2.58;;;21.10;21.10;;;;;;4989739;28;20398;-77
2021/07/31 10:34:56;;;;;;;3.40;2.33;;;21.20;20.40;;;;;;4976838;28;20884;-76
2021/07/31 10:37:28;;;;;;;2.65;2.33;;;21.20;20.50;;;;;;4996911;28;20394;-74
2021/07/31 10:39:57;;;;;;;3.87;2.63;;;21.30;21.20;;;;;;4995558;28;20410;-74
2021/07/31 10:42:23;;;;;;;3.03;2.40;;;21.70;20.20;;;;;;4996295;28;20402;-76
2021/07/31 10:45:17;;;;;;;4.00;2.50;;;22.10;19.80;;;;;;4996541;28;20444;-76
2021/07/31 10:47:48;;;;;;;3.15;2.28;;;22.40;18.40;;;;;;4975822;28;20388;-76
2021/07/31 10:50:22;;;;;;;3.90;2.50;;;22.50;17.30;;;;;;4981991;28;20433;-76
2021/07/31 10:53:00;;;;;;;4.07;2.50;;;22.20;18.20;;;;;;4994824;28;20397;-76
2021/07/31 10:55:45;;;;;;;4.93;2.10;;;21.90;18.40;;;;;;4985360;28;20384;-77
2021/07/31 10:58:21;;;;;;;2.60;2.40;;;22.10;18.70;;;;;;4989956;28;20463;-75
2021/07/31 11:00:46;;;;;;;4.00;2.25;;;22.50;18.30;;;;;;4982367;28;20410;-76
2021/07/31 11:03:14;;;;;;;2.70;2.30;;;23.00;16.50;;;;;;4994648;28;20420;-75
2021/07/31 11:05:51;;;;;;;5.18;2.20;;;23.30;15.60;;;;;;4988219;28;20471;-78
2021/07/31 11:08:23;;;;;;;4.20;2.20;;;23.50;15.50;;;;;;4981680;28;20401;-76
2021/07/31 11:10:54;;;;;;;4.07;2.30;;;23.50;15.50;;;;;;4986059;28;20404;-76
2021/07/31 11:13:20;;;;;;;3.38;2.30;;;23.60;15.30;;;;;;4981994;28;20498;-76
2021/07/31 11:16:04;;;;;;;3.00;2.07;;;23.60;14.50;;;;;;4977046;28;20393;-75
2021/07/31 11:18:35;;;;;;;5.10;2.20;;;23.40;14.90;;;;;;4983775;28;20394;-76
2021/07/31 11:21:24;;;;;;;7.30;2.40;;;23.70;15.20;;;;;;4997334;28;20409;-76
2021/07/31 11:23:57;;;;;;;5.00;2.40;;;23.70;14.80;;;;;;4996062;28;20489;-75
2021/07/31 11:26:59;;;;;;;7.53;2.50;;;23.50;15.30;;;;;;4985271;28;20400;-75
2021/07/31 11:29:27;;;;;;;2.30;2.03;;;23.30;15.80;;;;;;4973313;28;20467;-76
2021/07/31 11:32:11;;;;;;;5.30;2.30;;;23.30;15.40;;;;;;4975328;28;20411;-76
2021/07/31 11:34:41;;;;;;;6.18;2.20;;;23.40;15.50;;;;;;4988257;28;20946;-75
2021/07/31 11:37:07;;;;;;;3.60;2.60;;;23.80;15.10;;;;;;4994623;28;20399;-77
2021/07/31 11:39:33;;;;;;;3.55;2.50;;;24.20;15.20;;;;;;4992521;28;20414;-79
2021/07/31 11:41:59;;;;;;;2.53;2.00;;;24.40;13.50;;;;;;5018972;28;20398;-77
2021/07/31 11:44:30;;;;;;;6.55;2.58;;;24.10;14.10;;;;;;4997434;28;20415;-79
2021/07/31 11:46:57;;;;;;;4.93;2.65;;;24.00;14.40;;;;;;5005244;28;20378;-77
2021/07/31 11:49:33;;;;;;;4.45;2.30;;;24.00;14.80;;;;;;5002085;28;20422;-77
2021/07/31 11:52:10;;;;;;;3.45;2.38;;;23.90;15.10;;;;;;4987595;28;20400;-78
2021/07/31 11:54:41;;;;;;;4.88;2.25;;;24.10;14.80;;;;;;5001400;28;20425;-79
2021/07/31 11:57:07;;;;;;;4.40;2.40;;;24.30;14.50;;;;;;5004228;28;20391;-79
2021/07/31 11:59:34;;;;;;;4.50;2.37;;;24.20;13.90;;;;;;4994726;28;20429;-79
2021/07/31 12:01:59;;;;;;;5.03;2.80;;;24.10;14.30;;;;;;4982780;28;20396;-80
2021/07/31 12:04:43;;;;;;;4.22;2.17;;;23.90;14.90;;;;;;4994270;28;20779;-79
2021/07/31 12:07:15;;;;;;;3.88;2.60;;;23.80;15.60;;;;;;4982320;28;20392;-78
2021/07/31 12:09:41;;;;;;;3.90;2.15;;;24.50;15.60;;;;;;4994970;28;20409;-78
2021/07/31 12:12:37;;;;;;;2.83;2.35;;;25.00;13.20;;;;;;5004196;28;20415;-79
2021/07/31 12:15:28;;;;;;;3.30;2.10;;;25.00;13.70;;;;;;4968737;28;20472;-79
2021/07/31 12:17:54;;;;;;;3.20;2.30;;;25.00;13.80;;;;;;4981128;28;20716;-80
2021/07/31 12:20:35;;;;;;;4.70;2.63;;;24.80;13.80;;;;;;5000728;28;20398;-79
2021/07/31 12:23:02;;;;;;;4.60;2.40;;;24.70;13.80;;;;;;4984809;28;20476;-77
2021/07/31 12:25:29;;;;;;;5.85;2.80;;;24.50;14.40;;;;;;5017239;28;20967;-77
2021/07/31 12:28:12;;;;;;;2.38;2.08;;;24.60;14.00;;;;;;5003925;28;20473;-81
2021/07/31 12:30:42;;;;;;;4.33;2.40;;;24.50;14.00;;;;;;4996559;28;20379;-80
2021/07/31 12:33:08;;;;;;;6.20;2.77;;;24.50;14.10;;;;;;4977777;28;20441;-78
2021/07/31 12:35:44;;;;;;;4.77;2.33;;;24.50;14.10;;;;;;5020887;28;20489;-80
2021/07/31 12:38:22;;;;;;;2.95;2.22;;;24.50;14.50;;;;;;4989320;28;20414;-81
2021/07/31 12:41:02;;;;;;;4.63;2.20;;;23.90;14.70;;;;;;5003384;28;20379;-80
2021/07/31 12:43:29;;;;;;;4.28;2.00;;;23.50;15.30;;;;;;5004515;28;20410;-79
2021/07/31 12:45:58;;;;;;;4.35;2.30;;;23.20;16.00;;;;;;4993014;28;20405;-79
2021/07/31 12:48:23;;;;;;;4.90;2.20;;;23.20;16.00;;;;;;4994330;28;20968;-76
2021/07/31 12:50:49;;;;;;;2.40;2.20;;;23.00;16.30;;;;;;4994181;28;20413;-76